sensor_id;sensor_type;location;lat;lon;timestamp;P1;durP1;ratioP1;P2;durP2;ratioP2
38779;SDS011;29273;49.962;9.768;2023-07-28T00:02:20;0.80;;;0.60;;
38779;SDS011;29273;49.962;9.768;2023-07-28T00:04:45;0.57;;;0.50;;
38779;SDS011;29273;49.962;9.768;2023-07-28T00:07:11;0.70;;;0.70;;
38779;SDS011;29273;49.962;9.768;2023-07-28T00:09:36;0.75;;;0.50;;
38779;SDS011;29273;49.962;9.768;2023-07-28T00:12:02;1.00;;;0.80;;
38779;SDS011;29273;49.962;9.768;2023-07-28T00:14:27;0.85;;;0.50;;
38779;SDS011;29273;49.962;9.768;2023-07-28T00:16:54;0.70;;;0.70;;
38779;SDS011;29273;49.962;9.768;2023-07-28T00:19:21;0.50;;;0.50;;
38779;SDS011;29273;49.962;9.768;2023-07-28T00:21:50;0.68;;;0.50;;
38779;SDS011;29273;49.962;9.768;2023-07-28T00:24:16;0.88;;;0.60;;
38779;SDS011;29273;49.962;9.768;2023-07-28T00:26:43;0.50;;;0.50;;
38779;SDS011;29273;49.962;9.768;2023-07-28T00:29:10;0.52;;;0.45;;
38779;SDS011;29273;49.962;9.768;2023-07-28T00:31:36;0.60;;;0.50;;
38779;SDS011;29273;49.962;9.768;2023-07-28T00:34:02;0.50;;;0.50;;
38779;SDS011;29273;49.962;9.768;2023-07-28T00:36:29;0.68;;;0.60;;
38779;SDS011;29273;49.962;9.768;2023-07-28T00:38:54;1.00;;;0.80;;
38779;SDS011;29273;49.962;9.768;2023-07-28T00:41:22;0.60;;;0.60;;
38779;SDS011;29273;49.962;9.768;2023-07-28T00:43:47;0.55;;;0.55;;
38779;SDS011;29273;49.962;9.768;2023-07-28T00:46:13;0.60;;;0.60;;
38779;SDS011;29273;49.962;9.768;2023-07-28T00:48:39;0.80;;;0.68;;
38779;SDS011;29273;49.962;9.768;2023-07-28T00:51:05;0.85;;;0.70;;
38779;SDS011;29273;49.962;9.768;2023-07-28T00:53:32;0.80;;;0.80;;
38779;SDS011;29273;49.962;9.768;2023-07-28T00:55:58;0.85;;;0.70;;
38779;SDS011;29273;49.962;9.768;2023-07-28T00:58:24;1.13;;;0.75;;
38779;SDS011;29273;49.962;9.768;2023-07-28T01:00:49;0.70;;;0.60;;
38779;SDS011;29273;49.962;9.768;2023-07-28T01:03:17;0.75;;;0.57;;
38779;SDS011;29273;49.962;9.768;2023-07-28T01:08:16;0.85;;;0.68;;
38779;SDS011;29273;49.962;9.768;2023-07-28T01:10:49;1.20;;;0.70;;
38779;SDS011;29273;49.962;9.768;2023-07-28T01:13:15;0.73;;;0.70;;
38779;SDS011;29273;49.962;9.768;2023-07-28T01:15:40;0.73;;;0.73;;
38779;SDS011;29273;49.962;9.768;2023-07-28T01:18:06;0.80;;;0.63;;
38779;SDS011;29273;49.962;9.768;2023-07-28T01:20:31;0.90;;;0.73;;
38779;SDS011;29273;49.962;9.768;2023-07-28T01:23:18;1.00;;;0.90;;
38779;SDS011;29273;49.962;9.768;2023-07-28T01:28:27;2.30;;;1.07;;
38779;SDS011;29273;49.962;9.768;2023-07-28T01:30:53;0.82;;;0.75;;
38779;SDS011;29273;49.962;9.768;2023-07-28T01:33:19;1.05;;;0.70;;
38779;SDS011;29273;49.962;9.768;2023-07-28T01:35:45;1.38;;;0.90;;
38779;SDS011;29273;49.962;9.768;2023-07-28T01:38:10;1.05;;;0.88;;
38779;SDS011;29273;49.962;9.768;2023-07-28T01:40:37;0.90;;;0.80;;
38779;SDS011;29273;49.962;9.768;2023-07-28T01:43:02;0.77;;;0.77;;
38779;SDS011;29273;49.962;9.768;2023-07-28T01:45:28;0.93;;;0.80;;
38779;SDS011;29273;49.962;9.768;2023-07-28T01:47:53;1.00;;;0.88;;
38779;SDS011;29273;49.962;9.768;2023-07-28T01:50:19;1.00;;;0.80;;
38779;SDS011;29273;49.962;9.768;2023-07-28T01:52:44;0.82;;;0.70;;
38779;SDS011;29273;49.962;9.768;2023-07-28T01:55:10;0.80;;;0.70;;
38779;SDS011;29273;49.962;9.768;2023-07-28T01:57:39;1.00;;;0.80;;
38779;SDS011;29273;49.962;9.768;2023-07-28T02:00:06;1.83;;;0.80;;
38779;SDS011;29273;49.962;9.768;2023-07-28T02:02:41;0.85;;;0.85;;
38779;SDS011;29273;49.962;9.768;2023-07-28T02:05:06;0.75;;;0.65;;
38779;SDS011;29273;49.962;9.768;2023-07-28T02:07:32;0.70;;;0.70;;
38779;SDS011;29273;49.962;9.768;2023-07-28T02:09:57;0.80;;;0.80;;
38779;SDS011;29273;49.962;9.768;2023-07-28T02:12:23;0.90;;;0.70;;
38779;SDS011;29273;49.962;9.768;2023-07-28T02:14:48;1.45;;;0.95;;
38779;SDS011;29273;49.962;9.768;2023-07-28T02:17:14;1.02;;;0.82;;
38779;SDS011;29273;49.962;9.768;2023-07-28T02:19:39;1.40;;;0.90;;
38779;SDS011;29273;49.962;9.768;2023-07-28T02:22:05;1.00;;;0.90;;
38779;SDS011;29273;49.962;9.768;2023-07-28T02:24:30;1.38;;;0.80;;
38779;SDS011;29273;49.962;9.768;2023-07-28T02:26:56;1.50;;;0.90;;
38779;SDS011;29273;49.962;9.768;2023-07-28T02:29:24;0.77;;;0.75;;
38779;SDS011;29273;49.962;9.768;2023-07-28T02:31:50;1.58;;;0.88;;
38779;SDS011;29273;49.962;9.768;2023-07-28T02:34:16;1.75;;;0.98;;
38779;SDS011;29273;49.962;9.768;2023-07-28T02:36:41;0.90;;;0.90;;
38779;SDS011;29273;49.962;9.768;2023-07-28T02:39:07;0.80;;;0.80;;
38779;SDS011;29273;49.962;9.768;2023-07-28T02:41:32;0.90;;;0.80;;
38779;SDS011;29273;49.962;9.768;2023-07-28T02:43:57;0.85;;;0.82;;
38779;SDS011;29273;49.962;9.768;2023-07-28T02:46:23;0.80;;;0.80;;
38779;SDS011;29273;49.962;9.768;2023-07-28T02:48:50;1.95;;;0.93;;
38779;SDS011;29273;49.962;9.768;2023-07-28T02:51:16;1.25;;;1.10;;
38779;SDS011;29273;49.962;9.768;2023-07-28T02:53:41;0.70;;;0.70;;
38779;SDS011;29273;49.962;9.768;2023-07-28T02:56:07;1.20;;;0.90;;
38779;SDS011;29273;49.962;9.768;2023-07-28T02:58:32;0.95;;;0.80;;
38779;SDS011;29273;49.962;9.768;2023-07-28T03:00:58;1.73;;;1.00;;
38779;SDS011;29273;49.962;9.768;2023-07-28T03:03:31;1.05;;;0.90;;
38779;SDS011;29273;49.962;9.768;2023-07-28T03:05:57;0.98;;;0.90;;
38779;SDS011;29273;49.962;9.768;2023-07-28T03:08:24;0.75;;;0.73;;
38779;SDS011;29273;49.962;9.768;2023-07-28T03:10:50;1.02;;;0.95;;
38779;SDS011;29273;49.962;9.768;2023-07-28T03:13:21;1.38;;;0.95;;
38779;SDS011;29273;49.962;9.768;2023-07-28T03:15:47;1.10;;;1.00;;
38779;SDS011;29273;49.962;9.768;2023-07-28T03:18:12;0.80;;;0.80;;
38779;SDS011;29273;49.962;9.768;2023-07-28T03:20:38;1.17;;;0.95;;
38779;SDS011;29273;49.962;9.768;2023-07-28T03:23:04;0.85;;;0.82;;
38779;SDS011;29273;49.962;9.768;2023-07-28T03:25:31;1.50;;;0.80;;
38779;SDS011;29273;49.962;9.768;2023-07-28T03:27:56;1.00;;;0.90;;
38779;SDS011;29273;49.962;9.768;2023-07-28T03:30:22;1.77;;;1.10;;
38779;SDS011;29273;49.962;9.768;2023-07-28T03:32:47;2.08;;;1.00;;
38779;SDS011;29273;49.962;9.768;2023-07-28T03:35:13;0.60;;;0.60;;
38779;SDS011;29273;49.962;9.768;2023-07-28T03:37:43;1.23;;;0.88;;
38779;SDS011;29273;49.962;9.768;2023-07-28T03:40:09;1.10;;;0.95;;
38779;SDS011;29273;49.962;9.768;2023-07-28T03:42:44;1.33;;;0.90;;
38779;SDS011;29273;49.962;9.768;2023-07-28T03:45:10;0.82;;;0.82;;
38779;SDS011;29273;49.962;9.768;2023-07-28T03:47:35;0.75;;;0.75;;
38779;SDS011;29273;49.962;9.768;2023-07-28T03:50:02;0.80;;;0.75;;
38779;SDS011;29273;49.962;9.768;2023-07-28T03:52:28;1.25;;;0.82;;
38779;SDS011;29273;49.962;9.768;2023-07-28T03:54:54;1.05;;;0.85;;
38779;SDS011;29273;49.962;9.768;2023-07-28T03:57:20;2.25;;;0.82;;
38779;SDS011;29273;49.962;9.768;2023-07-28T03:59:45;1.05;;;0.95;;
38779;SDS011;29273;49.962;9.768;2023-07-28T04:02:11;0.70;;;0.70;;
38779;SDS011;29273;49.962;9.768;2023-07-28T04:04:36;1.13;;;0.80;;
38779;SDS011;29273;49.962;9.768;2023-07-28T04:07:02;0.95;;;0.85;;
38779;SDS011;29273;49.962;9.768;2023-07-28T04:09:28;0.90;;;0.75;;
38779;SDS011;29273;49.962;9.768;2023-07-28T04:11:53;1.30;;;0.93;;
38779;SDS011;29273;49.962;9.768;2023-07-28T04:14:19;0.73;;;0.73;;
38779;SDS011;29273;49.962;9.768;2023-07-28T04:16:44;1.52;;;0.77;;
38779;SDS011;29273;49.962;9.768;2023-07-28T04:19:12;0.93;;;0.80;;
38779;SDS011;29273;49.962;9.768;2023-07-28T04:21:37;1.23;;;0.80;;
38779;SDS011;29273;49.962;9.768;2023-07-28T04:24:06;0.93;;;0.70;;
38779;SDS011;29273;49.962;9.768;2023-07-28T04:26:35;2.13;;;0.77;;
38779;SDS011;29273;49.962;9.768;2023-07-28T04:29:02;0.85;;;0.50;;
38779;SDS011;29273;49.962;9.768;2023-07-28T04:31:28;0.70;;;0.70;;
38779;SDS011;29273;49.962;9.768;2023-07-28T04:34:02;1.50;;;0.70;;
38779;SDS011;29273;49.962;9.768;2023-07-28T04:36:48;0.80;;;0.65;;
38779;SDS011;29273;49.962;9.768;2023-07-28T04:39:18;1.58;;;0.80;;
38779;SDS011;29273;49.962;9.768;2023-07-28T04:41:43;0.90;;;0.70;;
38779;SDS011;29273;49.962;9.768;2023-07-28T04:44:09;0.98;;;0.70;;
38779;SDS011;29273;49.962;9.768;2023-07-28T04:46:37;0.70;;;0.60;;
38779;SDS011;29273;49.962;9.768;2023-07-28T04:49:07;0.80;;;0.60;;
38779;SDS011;29273;49.962;9.768;2023-07-28T04:52:02;0.70;;;0.60;;
38779;SDS011;29273;49.962;9.768;2023-07-28T04:54:43;1.00;;;0.68;;
38779;SDS011;29273;49.962;9.768;2023-07-28T04:57:08;0.82;;;0.80;;
38779;SDS011;29273;49.962;9.768;2023-07-28T04:59:36;0.90;;;0.60;;
38779;SDS011;29273;49.962;9.768;2023-07-28T05:02:02;0.98;;;0.70;;
38779;SDS011;29273;49.962;9.768;2023-07-28T05:04:27;0.90;;;0.68;;
38779;SDS011;29273;49.962;9.768;2023-07-28T05:06:53;0.52;;;0.52;;
38779;SDS011;29273;49.962;9.768;2023-07-28T05:09:19;0.95;;;0.60;;
38779;SDS011;29273;49.962;9.768;2023-07-28T05:11:44;0.50;;;0.50;;
38779;SDS011;29273;49.962;9.768;2023-07-28T05:14:10;0.68;;;0.50;;
38779;SDS011;29273;49.962;9.768;2023-07-28T05:16:36;0.73;;;0.60;;
38779;SDS011;29273;49.962;9.768;2023-07-28T05:19:03;1.85;;;0.70;;
38779;SDS011;29273;49.962;9.768;2023-07-28T05:21:49;0.50;;;0.40;;
38779;SDS011;29273;49.962;9.768;2023-07-28T05:24:18;0.52;;;0.52;;
38779;SDS011;29273;49.962;9.768;2023-07-28T05:26:43;1.65;;;0.50;;
38779;SDS011;29273;49.962;9.768;2023-07-28T05:29:09;0.90;;;0.55;;
38779;SDS011;29273;49.962;9.768;2023-07-28T05:31:35;0.77;;;0.70;;
38779;SDS011;29273;49.962;9.768;2023-07-28T05:34:03;0.68;;;0.60;;
38779;SDS011;29273;49.962;9.768;2023-07-28T05:36:29;1.50;;;0.57;;
38779;SDS011;29273;49.962;9.768;2023-07-28T05:38:58;0.40;;;0.40;;
38779;SDS011;29273;49.962;9.768;2023-07-28T05:41:32;0.60;;;0.50;;
38779;SDS011;29273;49.962;9.768;2023-07-28T05:43:57;0.50;;;0.40;;
38779;SDS011;29273;49.962;9.768;2023-07-28T05:46:23;0.50;;;0.50;;
38779;SDS011;29273;49.962;9.768;2023-07-28T05:48:49;0.70;;;0.50;;
38779;SDS011;29273;49.962;9.768;2023-07-28T05:51:15;0.50;;;0.50;;
38779;SDS011;29273;49.962;9.768;2023-07-28T05:53:41;0.40;;;0.40;;
38779;SDS011;29273;49.962;9.768;2023-07-28T05:56:07;0.73;;;0.55;;
38779;SDS011;29273;49.962;9.768;2023-07-28T05:58:33;0.40;;;0.40;;
38779;SDS011;29273;49.962;9.768;2023-07-28T06:00:58;0.65;;;0.55;;
38779;SDS011;29273;49.962;9.768;2023-07-28T06:03:56;0.68;;;0.50;;
38779;SDS011;29273;49.962;9.768;2023-07-28T06:06:25;0.47;;;0.40;;
38779;SDS011;29273;49.962;9.768;2023-07-28T06:08:52;0.52;;;0.47;;
38779;SDS011;29273;49.962;9.768;2023-07-28T06:11:18;0.95;;;0.30;;
38779;SDS011;29273;49.962;9.768;2023-07-28T06:13:43;0.40;;;0.40;;
38779;SDS011;29273;49.962;9.768;2023-07-28T06:16:10;0.75;;;0.50;;
38779;SDS011;29273;49.962;9.768;2023-07-28T06:18:36;0.70;;;0.32;;
38779;SDS011;29273;49.962;9.768;2023-07-28T06:21:22;0.63;;;0.40;;
38779;SDS011;29273;49.962;9.768;2023-07-28T06:23:47;0.30;;;0.30;;
38779;SDS011;29273;49.962;9.768;2023-07-28T06:26:13;0.45;;;0.30;;
38779;SDS011;29273;49.962;9.768;2023-07-28T06:28:39;0.43;;;0.40;;
38779;SDS011;29273;49.962;9.768;2023-07-28T06:31:05;0.70;;;0.43;;
38779;SDS011;29273;49.962;9.768;2023-07-28T06:33:31;0.50;;;0.35;;
38779;SDS011;29273;49.962;9.768;2023-07-28T06:35:57;0.50;;;0.45;;
38779;SDS011;29273;49.962;9.768;2023-07-28T06:38:22;0.40;;;0.30;;
38779;SDS011;29273;49.962;9.768;2023-07-28T06:40:48;0.30;;;0.30;;
38779;SDS011;29273;49.962;9.768;2023-07-28T06:43:14;0.60;;;0.40;;
38779;SDS011;29273;49.962;9.768;2023-07-28T06:45:39;0.40;;;0.40;;
38779;SDS011;29273;49.962;9.768;2023-07-28T06:48:05;1.02;;;0.38;;
38779;SDS011;29273;49.962;9.768;2023-07-28T06:50:30;0.68;;;0.43;;
38779;SDS011;29273;49.962;9.768;2023-07-28T06:52:57;0.40;;;0.40;;
38779;SDS011;29273;49.962;9.768;2023-07-28T06:55:24;0.38;;;0.38;;
38779;SDS011;29273;49.962;9.768;2023-07-28T06:57:50;0.82;;;0.50;;
38779;SDS011;29273;49.962;9.768;2023-07-28T07:00:16;0.98;;;0.40;;
38779;SDS011;29273;49.962;9.768;2023-07-28T07:02:43;0.30;;;0.30;;
38779;SDS011;29273;49.962;9.768;2023-07-28T07:05:09;0.30;;;0.30;;
38779;SDS011;29273;49.962;9.768;2023-07-28T07:07:35;0.38;;;0.38;;
38779;SDS011;29273;49.962;9.768;2023-07-28T07:10:00;0.32;;;0.32;;
38779;SDS011;29273;49.962;9.768;2023-07-28T07:12:26;0.28;;;0.25;;
38779;SDS011;29273;49.962;9.768;2023-07-28T07:14:51;0.40;;;0.30;;
38779;SDS011;29273;49.962;9.768;2023-07-28T07:17:17;0.60;;;0.30;;
38779;SDS011;29273;49.962;9.768;2023-07-28T07:19:43;0.40;;;0.40;;
38779;SDS011;29273;49.962;9.768;2023-07-28T07:22:09;0.50;;;0.50;;
38779;SDS011;29273;49.962;9.768;2023-07-28T07:24:34;0.30;;;0.30;;
38779;SDS011;29273;49.962;9.768;2023-07-28T07:27:00;0.70;;;0.50;;
38779;SDS011;29273;49.962;9.768;2023-07-28T07:29:25;0.70;;;0.55;;
38779;SDS011;29273;49.962;9.768;2023-07-28T07:31:51;0.68;;;0.52;;
38779;SDS011;29273;49.962;9.768;2023-07-28T07:34:20;0.63;;;0.57;;
38779;SDS011;29273;49.962;9.768;2023-07-28T07:36:46;0.93;;;0.40;;
38779;SDS011;29273;49.962;9.768;2023-07-28T07:39:11;0.43;;;0.43;;
38779;SDS011;29273;49.962;9.768;2023-07-28T07:41:37;0.50;;;0.50;;
38779;SDS011;29273;49.962;9.768;2023-07-28T07:44:02;1.02;;;0.50;;
38779;SDS011;29273;49.962;9.768;2023-07-28T07:46:28;0.30;;;0.30;;
38779;SDS011;29273;49.962;9.768;2023-07-28T07:48:53;0.40;;;0.40;;
38779;SDS011;29273;49.962;9.768;2023-07-28T07:51:19;0.30;;;0.30;;
38779;SDS011;29273;49.962;9.768;2023-07-28T07:53:44;0.45;;;0.45;;
38779;SDS011;29273;49.962;9.768;2023-07-28T07:56:10;0.30;;;0.30;;
38779;SDS011;29273;49.962;9.768;2023-07-28T07:58:36;0.40;;;0.40;;
38779;SDS011;29273;49.962;9.768;2023-07-28T08:01:02;0.40;;;0.40;;
38779;SDS011;29273;49.962;9.768;2023-07-28T08:03:29;0.40;;;0.40;;
38779;SDS011;29273;49.962;9.768;2023-07-28T08:05:55;0.40;;;0.30;;
38779;SDS011;29273;49.962;9.768;2023-07-28T08:08:20;0.40;;;0.40;;
38779;SDS011;29273;49.962;9.768;2023-07-28T08:10:46;0.30;;;0.30;;
38779;SDS011;29273;49.962;9.768;2023-07-28T08:13:12;0.30;;;0.30;;
38779;SDS011;29273;49.962;9.768;2023-07-28T08:15:38;0.38;;;0.35;;
38779;SDS011;29273;49.962;9.768;2023-07-28T08:18:04;0.30;;;0.30;;
38779;SDS011;29273;49.962;9.768;2023-07-28T08:20:29;0.40;;;0.40;;
38779;SDS011;29273;49.962;9.768;2023-07-28T08:22:55;0.47;;;0.30;;
38779;SDS011;29273;49.962;9.768;2023-07-28T08:25:21;0.30;;;0.30;;
38779;SDS011;29273;49.962;9.768;2023-07-28T08:27:48;0.30;;;0.30;;
38779;SDS011;29273;49.962;9.768;2023-07-28T08:30:13;0.30;;;0.20;;
38779;SDS011;29273;49.962;9.768;2023-07-28T08:32:41;0.30;;;0.30;;
38779;SDS011;29273;49.962;9.768;2023-07-28T08:35:07;0.43;;;0.30;;
38779;SDS011;29273;49.962;9.768;2023-07-28T08:37:33;0.20;;;0.20;;
38779;SDS011;29273;49.962;9.768;2023-07-28T08:39:59;0.40;;;0.30;;
38779;SDS011;29273;49.962;9.768;2023-07-28T08:42:24;0.28;;;0.28;;
38779;SDS011;29273;49.962;9.768;2023-07-28T08:44:50;0.43;;;0.30;;
38779;SDS011;29273;49.962;9.768;2023-07-28T08:47:17;1.17;;;0.45;;
38779;SDS011;29273;49.962;9.768;2023-07-28T08:49:45;0.20;;;0.20;;
38779;SDS011;29273;49.962;9.768;2023-07-28T08:52:10;0.20;;;0.20;;
38779;SDS011;29273;49.962;9.768;2023-07-28T08:54:39;0.85;;;0.30;;
38779;SDS011;29273;49.962;9.768;2023-07-28T08:57:05;0.35;;;0.30;;
38779;SDS011;29273;49.962;9.768;2023-07-28T08:59:31;0.20;;;0.20;;
38779;SDS011;29273;49.962;9.768;2023-07-28T09:01:57;0.20;;;0.20;;
38779;SDS011;29273;49.962;9.768;2023-07-28T09:04:24;0.30;;;0.30;;
38779;SDS011;29273;49.962;9.768;2023-07-28T09:06:51;0.30;;;0.30;;
38779;SDS011;29273;49.962;9.768;2023-07-28T09:09:18;0.20;;;0.20;;
38779;SDS011;29273;49.962;9.768;2023-07-28T09:11:47;0.47;;;0.30;;
38779;SDS011;29273;49.962;9.768;2023-07-28T09:14:15;0.20;;;0.20;;
38779;SDS011;29273;49.962;9.768;2023-07-28T09:16:42;0.50;;;0.40;;
38779;SDS011;29273;49.962;9.768;2023-07-28T09:19:08;0.30;;;0.30;;
38779;SDS011;29273;49.962;9.768;2023-07-28T09:21:35;0.40;;;0.40;;
38779;SDS011;29273;49.962;9.768;2023-07-28T09:24:05;0.40;;;0.30;;
38779;SDS011;29273;49.962;9.768;2023-07-28T09:29:10;0.30;;;0.30;;
38779;SDS011;29273;49.962;9.768;2023-07-28T09:31:43;0.40;;;0.40;;
38779;SDS011;29273;49.962;9.768;2023-07-28T09:34:10;0.50;;;0.30;;
38779;SDS011;29273;49.962;9.768;2023-07-28T09:36:36;0.40;;;0.40;;
38779;SDS011;29273;49.962;9.768;2023-07-28T09:39:04;0.30;;;0.30;;
38779;SDS011;29273;49.962;9.768;2023-07-28T09:41:37;0.40;;;0.32;;
38779;SDS011;29273;49.962;9.768;2023-07-28T09:44:03;0.30;;;0.30;;
38779;SDS011;29273;49.962;9.768;2023-07-28T09:46:32;0.40;;;0.40;;
38779;SDS011;29273;49.962;9.768;2023-07-28T09:49:02;0.28;;;0.28;;
38779;SDS011;29273;49.962;9.768;2023-07-28T09:51:30;0.98;;;0.40;;
38779;SDS011;29273;49.962;9.768;2023-07-28T09:53:58;0.50;;;0.20;;
38779;SDS011;29273;49.962;9.768;2023-07-28T09:56:30;0.43;;;0.40;;
38779;SDS011;29273;49.962;9.768;2023-07-28T09:58:56;0.30;;;0.30;;
38779;SDS011;29273;49.962;9.768;2023-07-28T10:01:23;0.52;;;0.45;;
38779;SDS011;29273;49.962;9.768;2023-07-28T10:03:49;0.43;;;0.40;;
38779;SDS011;29273;49.962;9.768;2023-07-28T10:06:14;0.40;;;0.40;;
38779;SDS011;29273;49.962;9.768;2023-07-28T10:08:41;0.35;;;0.35;;
38779;SDS011;29273;49.962;9.768;2023-07-28T10:11:09;0.32;;;0.32;;
38779;SDS011;29273;49.962;9.768;2023-07-28T10:13:40;0.50;;;0.50;;
38779;SDS011;29273;49.962;9.768;2023-07-28T10:16:07;0.50;;;0.50;;
38779;SDS011;29273;49.962;9.768;2023-07-28T10:18:39;0.70;;;0.50;;
38779;SDS011;29273;49.962;9.768;2023-07-28T10:21:09;0.55;;;0.40;;
38779;SDS011;29273;49.962;9.768;2023-07-28T10:23:40;0.40;;;0.40;;
38779;SDS011;29273;49.962;9.768;2023-07-28T10:26:06;0.30;;;0.30;;
38779;SDS011;29273;49.962;9.768;2023-07-28T10:28:35;0.55;;;0.43;;
38779;SDS011;29273;49.962;9.768;2023-07-28T10:31:08;0.40;;;0.40;;
38779;SDS011;29273;49.962;9.768;2023-07-28T10:33:38;0.50;;;0.30;;
38779;SDS011;29273;49.962;9.768;2023-07-28T10:36:17;0.30;;;0.30;;
38779;SDS011;29273;49.962;9.768;2023-07-28T10:41:29;0.70;;;0.30;;
38779;SDS011;29273;49.962;9.768;2023-07-28T10:43:58;0.30;;;0.28;;
38779;SDS011;29273;49.962;9.768;2023-07-28T10:46:23;0.32;;;0.30;;
38779;SDS011;29273;49.962;9.768;2023-07-28T10:48:49;0.35;;;0.32;;
38779;SDS011;29273;49.962;9.768;2023-07-28T10:53:54;0.40;;;0.40;;
38779;SDS011;29273;49.962;9.768;2023-07-28T10:56:21;0.40;;;0.40;;
38779;SDS011;29273;49.962;9.768;2023-07-28T10:58:47;0.40;;;0.40;;
38779;SDS011;29273;49.962;9.768;2023-07-28T11:01:21;0.47;;;0.47;;
38779;SDS011;29273;49.962;9.768;2023-07-28T11:03:47;0.30;;;0.30;;
38779;SDS011;29273;49.962;9.768;2023-07-28T11:06:13;0.40;;;0.40;;
38779;SDS011;29273;49.962;9.768;2023-07-28T11:08:39;0.45;;;0.45;;
38779;SDS011;29273;49.962;9.768;2023-07-28T11:11:05;0.65;;;0.40;;
38779;SDS011;29273;49.962;9.768;2023-07-28T11:13:31;0.40;;;0.40;;
38779;SDS011;29273;49.962;9.768;2023-07-28T11:15:57;0.40;;;0.38;;
38779;SDS011;29273;49.962;9.768;2023-07-28T11:18:25;0.40;;;0.38;;
38779;SDS011;29273;49.962;9.768;2023-07-28T11:20:51;0.55;;;0.50;;
38779;SDS011;29273;49.962;9.768;2023-07-28T11:23:16;0.98;;;0.60;;
38779;SDS011;29273;49.962;9.768;2023-07-28T11:25:42;0.70;;;0.60;;
38779;SDS011;29273;49.962;9.768;2023-07-28T11:28:09;0.90;;;0.40;;
38779;SDS011;29273;49.962;9.768;2023-07-28T11:30:35;0.70;;;0.70;;
38779;SDS011;29273;49.962;9.768;2023-07-28T11:33:03;1.52;;;0.80;;
38779;SDS011;29273;49.962;9.768;2023-07-28T11:35:29;0.85;;;0.80;;
38779;SDS011;29273;49.962;9.768;2023-07-28T11:37:54;0.50;;;0.50;;
38779;SDS011;29273;49.962;9.768;2023-07-28T11:40:21;0.50;;;0.50;;
38779;SDS011;29273;49.962;9.768;2023-07-28T11:42:49;0.52;;;0.52;;
38779;SDS011;29273;49.962;9.768;2023-07-28T11:45:17;0.52;;;0.50;;
38779;SDS011;29273;49.962;9.768;2023-07-28T11:48:03;0.70;;;0.70;;
38779;SDS011;29273;49.962;9.768;2023-07-28T11:50:34;0.60;;;0.60;;
38779;SDS011;29273;49.962;9.768;2023-07-28T11:53:02;0.60;;;0.60;;
38779;SDS011;29273;49.962;9.768;2023-07-28T11:55:28;1.35;;;0.70;;
38779;SDS011;29273;49.962;9.768;2023-07-28T11:57:54;0.60;;;0.60;;
38779;SDS011;29273;49.962;9.768;2023-07-28T12:00:29;0.73;;;0.60;;
38779;SDS011;29273;49.962;9.768;2023-07-28T12:03:01;0.50;;;0.50;;
38779;SDS011;29273;49.962;9.768;2023-07-28T12:05:35;0.93;;;0.82;;
38779;SDS011;29273;49.962;9.768;2023-07-28T12:08:01;1.02;;;0.70;;
38779;SDS011;29273;49.962;9.768;2023-07-28T12:10:28;0.77;;;0.77;;
38779;SDS011;29273;49.962;9.768;2023-07-28T12:12:54;0.70;;;0.70;;
38779;SDS011;29273;49.962;9.768;2023-07-28T12:15:21;0.65;;;0.60;;
38779;SDS011;29273;49.962;9.768;2023-07-28T12:20:39;0.63;;;0.50;;
38779;SDS011;29273;49.962;9.768;2023-07-28T12:23:12;0.50;;;0.50;;
38779;SDS011;29273;49.962;9.768;2023-07-28T12:25:42;1.17;;;0.70;;
38779;SDS011;29273;49.962;9.768;2023-07-28T12:28:07;0.50;;;0.50;;
38779;SDS011;29273;49.962;9.768;2023-07-28T12:30:33;0.70;;;0.57;;
38779;SDS011;29273;49.962;9.768;2023-07-28T12:32:59;0.60;;;0.60;;
38779;SDS011;29273;49.962;9.768;2023-07-28T12:35:25;0.90;;;0.60;;
38779;SDS011;29273;49.962;9.768;2023-07-28T12:37:56;0.52;;;0.47;;
38779;SDS011;29273;49.962;9.768;2023-07-28T12:40:22;0.50;;;0.50;;
38779;SDS011;29273;49.962;9.768;2023-07-28T12:42:48;0.50;;;0.50;;
38779;SDS011;29273;49.962;9.768;2023-07-28T12:45:14;0.45;;;0.45;;
38779;SDS011;29273;49.962;9.768;2023-07-28T12:47:41;0.50;;;0.40;;
38779;SDS011;29273;49.962;9.768;2023-07-28T12:50:08;0.50;;;0.50;;
38779;SDS011;29273;49.962;9.768;2023-07-28T12:52:35;0.60;;;0.47;;
38779;SDS011;29273;49.962;9.768;2023-07-28T12:55:01;0.50;;;0.50;;
38779;SDS011;29273;49.962;9.768;2023-07-28T12:57:27;0.40;;;0.40;;
38779;SDS011;29273;49.962;9.768;2023-07-28T12:59:53;0.50;;;0.50;;
38779;SDS011;29273;49.962;9.768;2023-07-28T13:02:18;0.60;;;0.57;;
38779;SDS011;29273;49.962;9.768;2023-07-28T13:04:44;0.90;;;0.60;;
38779;SDS011;29273;49.962;9.768;2023-07-28T13:07:09;0.55;;;0.50;;
38779;SDS011;29273;49.962;9.768;2023-07-28T13:09:34;0.52;;;0.52;;
38779;SDS011;29273;49.962;9.768;2023-07-28T13:12:00;0.50;;;0.50;;
38779;SDS011;29273;49.962;9.768;2023-07-28T13:14:25;0.40;;;0.40;;
38779;SDS011;29273;49.962;9.768;2023-07-28T13:16:51;0.40;;;0.40;;
38779;SDS011;29273;49.962;9.768;2023-07-28T13:19:16;0.50;;;0.50;;
38779;SDS011;29273;49.962;9.768;2023-07-28T13:21:42;0.40;;;0.40;;
38779;SDS011;29273;49.962;9.768;2023-07-28T13:24:07;0.50;;;0.50;;
38779;SDS011;29273;49.962;9.768;2023-07-28T13:26:33;0.40;;;0.40;;
38779;SDS011;29273;49.962;9.768;2023-07-28T13:28:58;0.68;;;0.50;;
38779;SDS011;29273;49.962;9.768;2023-07-28T13:31:26;0.43;;;0.40;;
38779;SDS011;29273;49.962;9.768;2023-07-28T13:33:53;0.85;;;0.50;;
38779;SDS011;29273;49.962;9.768;2023-07-28T13:36:18;0.50;;;0.40;;
38779;SDS011;29273;49.962;9.768;2023-07-28T13:38:44;0.43;;;0.40;;
38779;SDS011;29273;49.962;9.768;2023-07-28T13:41:09;0.50;;;0.50;;
38779;SDS011;29273;49.962;9.768;2023-07-28T13:43:35;0.50;;;0.50;;
38779;SDS011;29273;49.962;9.768;2023-07-28T13:46:05;0.75;;;0.43;;
38779;SDS011;29273;49.962;9.768;2023-07-28T13:48:31;0.60;;;0.60;;
38779;SDS011;29273;49.962;9.768;2023-07-28T13:50:57;1.08;;;0.43;;
38779;SDS011;29273;49.962;9.768;2023-07-28T13:53:23;0.50;;;0.50;;
38779;SDS011;29273;49.962;9.768;2023-07-28T13:55:49;0.55;;;0.50;;
38779;SDS011;29273;49.962;9.768;2023-07-28T13:58:15;0.40;;;0.40;;
38779;SDS011;29273;49.962;9.768;2023-07-28T14:00:41;0.47;;;0.40;;
38779;SDS011;29273;49.962;9.768;2023-07-28T14:03:07;0.75;;;0.43;;
38779;SDS011;29273;49.962;9.768;2023-07-28T14:05:32;0.60;;;0.52;;
38779;SDS011;29273;49.962;9.768;2023-07-28T14:07:58;0.52;;;0.52;;
38779;SDS011;29273;49.962;9.768;2023-07-28T14:10:23;0.65;;;0.50;;
38779;SDS011;29273;49.962;9.768;2023-07-28T14:12:49;0.70;;;0.70;;
38779;SDS011;29273;49.962;9.768;2023-07-28T14:15:15;0.60;;;0.60;;
38779;SDS011;29273;49.962;9.768;2023-07-28T14:17:41;0.60;;;0.60;;
38779;SDS011;29273;49.962;9.768;2023-07-28T14:20:06;0.90;;;0.70;;
38779;SDS011;29273;49.962;9.768;2023-07-28T14:22:33;0.50;;;0.43;;
38779;SDS011;29273;49.962;9.768;2023-07-28T14:24:59;0.50;;;0.50;;
38779;SDS011;29273;49.962;9.768;2023-07-28T14:27:24;0.50;;;0.50;;
38779;SDS011;29273;49.962;9.768;2023-07-28T14:29:50;0.70;;;0.50;;
38779;SDS011;29273;49.962;9.768;2023-07-28T14:32:15;0.45;;;0.45;;
38779;SDS011;29273;49.962;9.768;2023-07-28T14:34:41;0.47;;;0.47;;
38779;SDS011;29273;49.962;9.768;2023-07-28T14:37:06;0.50;;;0.50;;
38779;SDS011;29273;49.962;9.768;2023-07-28T14:39:32;0.40;;;0.40;;
38779;SDS011;29273;49.962;9.768;2023-07-28T14:41:57;0.60;;;0.60;;
38779;SDS011;29273;49.962;9.768;2023-07-28T14:44:23;1.55;;;0.60;;
38779;SDS011;29273;49.962;9.768;2023-07-28T14:46:48;0.60;;;0.60;;
38779;SDS011;29273;49.962;9.768;2023-07-28T14:49:14;0.55;;;0.50;;
38779;SDS011;29273;49.962;9.768;2023-07-28T14:51:39;1.00;;;0.80;;
38779;SDS011;29273;49.962;9.768;2023-07-28T14:54:05;0.77;;;0.60;;
38779;SDS011;29273;49.962;9.768;2023-07-28T14:56:31;1.13;;;0.70;;
38779;SDS011;29273;49.962;9.768;2023-07-28T14:58:57;0.77;;;0.70;;
38779;SDS011;29273;49.962;9.768;2023-07-28T15:01:26;0.55;;;0.55;;
38779;SDS011;29273;49.962;9.768;2023-07-28T15:03:52;0.60;;;0.52;;